Time;durP1;ratioP1;P1;durP2;ratioP2;P2;SDS_P1;SDS_P2;PMS_P1;PMS_P2;Temp;Humidity;BMP_temperature;BMP_pressure;BME280_temperature;BME280_humidity;BME280_pressure;Samples;Min_cycle;Max_cycle;Signal;HPM_P1;HPM_P2
2021/12/14 00:02:34;;;;;;;10.82;5.90;;;;;;;7.07;100.00;102350.16;6267378;28;20049;-77
2021/12/14 00:05:36;;;;;;;10.00;5.57;;;;;;;7.06;100.00;102356.28;6273974;28;20056;-77
2021/12/14 00:08:48;;;;;;;11.30;4.88;;;;;;;7.06;100.00;102345.84;6273690;28;20393;-76
2021/12/14 00:12:08;;;;;;;10.75;4.78;;;;;;;7.05;100.00;102335.41;6272385;28;20053;-77
2021/12/14 00:15:12;;;;;;;9.45;4.97;;;;;;;7.05;100.00;102341.50;6224346;28;20045;-76
2021/12/14 00:18:14;;;;;;;11.60;5.15;;;;;;;7.02;100.00;102331.06;6223303;28;20066;-76
2021/12/14 00:21:20;;;;;;;13.00;6.35;;;;;;;7.02;100.00;102332.81;6224335;28;20054;-76
2021/12/14 00:24:26;;;;;;;14.75;5.45;;;;;;;7.02;100.00;102344.13;6224271;28;20499;-76
2021/12/14 00:27:29;;;;;;;10.25;5.28;;;;;;;7.00;100.00;102339.84;6224008;28;20061;-77
2021/12/14 00:30:33;;;;;;;9.95;4.75;;;;;;;7.01;100.00;102342.41;6224121;28;20046;-76
2021/12/14 00:33:37;;;;;;;13.63;5.40;;;;;;;6.99;100.00;102336.31;6242807;28;20057;-76
2021/12/14 00:36:39;;;;;;;12.10;5.43;;;;;;;7.00;100.00;102338.09;6248361;28;20049;-76
2021/12/14 00:39:42;;;;;;;14.82;6.28;;;;;;;7.01;100.00;102342.41;6248198;28;20072;-76
2021/12/14 00:42:45;;;;;;;8.80;5.30;;;;;;;7.02;100.00;102343.28;6248205;28;20424;-76
2021/12/14 00:45:47;;;;;;;10.68;5.40;;;;;;;7.01;100.00;102334.56;6248320;28;20046;-77
2021/12/14 00:48:50;;;;;;;12.48;5.05;;;;;;;7.02;100.00;102340.66;6248528;28;20053;-77
2021/12/14 00:51:53;;;;;;;10.77;5.80;;;;;;;7.02;100.00;102345.91;6248091;28;20049;-76
2021/12/14 00:54:55;;;;;;;12.13;5.90;;;;;;;7.01;100.00;102352.00;6248142;28;20049;-76
2021/12/14 00:57:59;;;;;;;12.85;4.40;;;;;;;7.01;100.00;102349.41;6247914;28;20056;-76
2021/12/14 01:01:05;;;;;;;12.07;5.35;;;;;;;6.99;100.00;102343.31;6247506;28;20056;-77
2021/12/14 01:04:12;;;;;;;10.77;5.60;;;;;;;6.98;100.00;102342.44;6247766;28;20046;-76
2021/12/14 01:07:16;;;;;;;13.30;5.43;;;;;;;7.00;100.00;102350.28;6247988;28;20060;-77
2021/12/14 01:10:26;;;;;;;10.00;5.15;;;;;;;6.97;100.00;102352.94;6247483;28;20053;-76
2021/12/14 01:13:32;;;;;;;14.98;5.40;;;;;;;6.98;100.00;102349.44;6247794;28;20056;-77
2021/12/14 01:16:49;;;;;;;10.60;6.07;;;;;;;7.00;100.00;102355.50;6247659;28;20045;-76
2021/12/14 01:19:56;;;;;;;12.30;4.60;;;;;;;7.04;100.00;102354.56;6247430;28;20064;-77
2021/12/14 01:23:01;;;;;;;12.15;5.53;;;;;;;7.02;100.00;102351.13;6255067;28;20056;-76
2021/12/14 01:26:09;;;;;;;10.70;5.80;;;;;;;7.01;100.00;102352.00;6260939;28;20443;-76
2021/12/14 01:29:14;;;;;;;10.35;5.18;;;;;;;7.04;100.00;102354.56;6263381;28;20412;-76
2021/12/14 01:32:16;;;;;;;13.40;5.20;;;;;;;7.02;100.00;102348.50;6259611;28;20053;-76
2021/12/14 01:35:23;;;;;;;14.55;5.50;;;;;;;7.03;100.00;102347.63;6246975;28;20046;-76
2021/12/14 01:38:45;;;;;;;10.65;5.13;;;;;;;6.97;100.00;102335.50;6247314;28;20103;-76
2021/12/14 01:41:52;;;;;;;11.40;4.78;;;;;;;6.94;100.00;102338.13;6246954;28;20049;-76
2021/12/14 01:44:58;;;;;;;7.20;4.85;;;;;;;6.94;100.00;102329.44;6247047;28;20420;-76
2021/12/14 01:48:00;;;;;;;10.70;5.50;;;;;;;6.93;100.00;102332.94;6247105;28;20045;-77
2021/12/14 01:51:06;;;;;;;10.43;4.88;;;;;;;6.95;100.00;102320.72;6260344;28;20424;-76
2021/12/14 01:54:12;;;;;;;9.07;4.07;;;;;;;6.92;100.00;102316.41;6271582;28;20055;-76
2021/12/14 01:57:16;;;;;;;12.18;4.82;;;;;;;6.93;100.00;102319.88;6271502;28;20454;-76
2021/12/14 02:00:24;;;;;;;19.45;5.72;;;;;;;6.92;100.00;102318.16;6271306;28;20068;-76
2021/12/14 02:03:30;;;;;;;9.70;4.38;;;;;;;6.94;100.00;102314.63;6248775;28;20056;-76
2021/12/14 02:06:34;;;;;;;9.65;4.53;;;;;;;6.93;100.00;102305.06;6246725;28;20073;-76
2021/12/14 02:09:38;;;;;;;8.75;4.47;;;;;;;6.94;100.00;102300.69;6246822;28;20053;-76
2021/12/14 02:12:43;;;;;;;12.35;4.05;;;;;;;6.91;100.00;102298.13;6246785;28;20045;-76
2021/12/14 02:15:46;;;;;;;9.55;5.13;;;;;;;6.91;100.00;102290.31;6246704;28;20041;-76
2021/12/14 02:18:51;;;;;;;12.10;4.13;;;;;;;6.93;100.00;102298.97;6246833;28;20046;-77
2021/12/14 02:21:55;;;;;;;10.10;4.78;;;;;;;6.93;100.00;102284.16;6246247;28;20064;-77
2021/12/14 02:24:57;;;;;;;12.45;5.80;;;;;;;6.93;100.00;102286.75;6246605;28;20056;-76
2021/12/14 02:28:02;;;;;;;11.38;4.55;;;;;;;6.94;100.00;102277.16;6246520;28;20054;-77
2021/12/14 02:31:10;;;;;;;22.02;8.55;;;;;;;6.92;100.00;102271.13;6246410;28;20485;-76
2021/12/14 02:34:12;;;;;;;14.02;5.53;;;;;;;6.90;100.00;102263.28;6246312;28;20053;-76
2021/12/14 02:37:16;;;;;;;9.35;4.18;;;;;;;6.87;100.00;102258.09;6246497;28;20373;-77
2021/12/14 02:40:30;;;;;;;11.40;4.43;;;;;;;6.85;100.00;102250.28;6246182;28;20481;-77
2021/12/14 02:43:37;;;;;;;9.82;4.68;;;;;;;6.86;100.00;102243.31;6250723;28;20095;-76
2021/12/14 02:46:41;;;;;;;13.68;4.45;;;;;;;6.82;100.00;102233.78;6251072;28;20053;-76
2021/12/14 02:49:44;;;;;;;11.13;4.32;;;;;;;6.81;100.00;102224.19;6251049;28;20050;-76
2021/12/14 02:52:47;;;;;;;9.52;4.47;;;;;;;6.79;100.00;102213.78;6250790;28;20064;-76
2021/12/14 02:55:48;;;;;;;14.23;4.20;;;;;;;6.80;100.00;102207.66;6250758;28;20042;-76
2021/12/14 02:58:51;;;;;;;14.20;4.78;;;;;;;6.77;100.00;102204.25;6250764;28;20053;-76
2021/12/14 03:01:55;;;;;;;9.27;4.85;;;;;;;6.76;100.00;102205.13;6250266;28;20057;-77
2021/12/14 03:05:00;;;;;;;11.35;4.80;;;;;;;6.75;100.00;102204.25;6250602;28;20523;-76
2021/12/14 03:08:06;;;;;;;10.93;4.95;;;;;;;6.74;100.00;102213.00;6250666;28;20060;-76
2021/12/14 03:11:11;;;;;;;10.90;4.75;;;;;;;6.75;100.00;102221.69;6231887;28;20054;-76
2021/12/14 03:14:12;;;;;;;13.13;4.80;;;;;;;6.76;100.00;102207.72;6238344;28;20057;-77
2021/12/14 03:17:14;;;;;;;13.63;5.30;;;;;;;6.75;100.00;102225.16;6262342;28;20046;-76
2021/12/14 03:20:19;;;;;;;11.45;4.65;;;;;;;6.75;100.00;102219.94;6265797;28;20060;-76
2021/12/14 03:23:26;;;;;;;15.85;5.18;;;;;;;6.74;100.00;102220.81;6257991;28;20496;-76
2021/12/14 03:26:31;;;;;;;13.02;4.80;;;;;;;6.77;100.00;102227.78;6250902;28;20084;-77
2021/12/14 03:29:35;;;;;;;13.15;4.45;;;;;;;6.79;100.00;102231.22;6259650;28;20054;-77
2021/12/14 03:32:36;;;;;;;14.68;4.97;;;;;;;6.83;100.00;102235.50;6257535;28;20515;-77
2021/12/14 03:35:42;;;;;;;11.43;4.97;;;;;;;6.81;100.00;102240.78;6266301;28;20415;-77
2021/12/14 03:38:48;;;;;;;15.25;5.07;;;;;;;6.81;100.00;102252.94;6274405;28;20075;-77
2021/12/14 03:41:52;;;;;;;13.82;5.80;;;;;;;6.85;100.00;102249.41;6253474;28;20080;-76
2021/12/14 03:44:57;;;;;;;9.13;4.50;;;;;;;6.85;100.00;102255.50;6266059;28;20440;-76
2021/12/14 03:48:01;;;;;;;14.40;6.00;;;;;;;6.84;100.00;102251.16;6250170;28;20511;-76
2021/12/14 03:51:04;;;;;;;13.70;6.13;;;;;;;6.85;100.00;102244.19;6249232;28;20053;-76
2021/12/14 03:54:07;;;;;;;13.23;5.15;;;;;;;6.83;100.00;102252.06;6249578;28;20049;-76
2021/12/14 03:57:10;;;;;;;17.52;5.60;;;;;;;6.83;100.00;102254.66;6249244;28;20072;-76
2021/12/14 04:00:18;;;;;;;12.07;5.10;;;;;;;6.82;100.00;102259.94;6249250;28;20052;-77
2021/12/14 04:03:23;;;;;;;18.15;5.93;;;;;;;6.79;100.00;102250.38;6249256;28;20053;-76
2021/12/14 04:06:25;;;;;;;13.38;4.65;;;;;;;6.78;100.00;102253.00;6249159;28;20052;-77
2021/12/14 04:09:32;;;;;;;10.25;4.28;;;;;;;6.77;100.00;102252.16;6249012;28;20412;-77
2021/12/14 04:12:33;;;;;;;17.60;6.25;;;;;;;6.77;100.00;102246.06;6250665;28;20045;-76
2021/12/14 04:15:35;;;;;;;21.02;5.53;;;;;;;6.76;100.00;102242.56;6265294;28;20041;-76
2021/12/14 04:18:37;;;;;;;15.43;5.53;;;;;;;6.75;100.00;102243.44;6273985;28;20053;-77
2021/12/14 04:21:42;;;;;;;12.85;5.50;;;;;;;6.74;100.00;102233.88;6273384;28;20045;-76
2021/12/14 04:24:48;;;;;;;10.90;4.85;;;;;;;6.75;100.00;102232.13;6273386;28;20053;-76
2021/12/14 04:27:53;;;;;;;11.68;4.70;;;;;;;6.76;100.00;102229.50;6273613;28;20049;-76
2021/12/14 04:30:54;;;;;;;14.52;4.45;;;;;;;6.74;100.00;102219.97;6266897;28;20053;-76
2021/12/14 04:33:56;;;;;;;13.63;4.35;;;;;;;6.75;100.00;102214.72;6248724;28;20054;-76
2021/12/14 04:36:58;;;;;;;9.27;4.05;;;;;;;6.71;100.00;102209.56;6248211;28;20046;-76
2021/12/14 04:40:16;;;;;;;13.02;4.97;;;;;;;6.69;100.00;102209.59;6248419;28;20050;-76
2021/12/14 04:53:34;;;;;;;10.88;5.10;;;;;;;6.75;100.00;102211.25;6248110;28;20054;-77
2021/12/14 04:56:40;;;;;;;11.27;4.85;;;;;;;6.76;100.00;102218.19;6247702;28;20053;-77
2021/12/14 04:59:42;;;;;;;10.60;4.65;;;;;;;6.76;100.00;102216.44;6247873;28;20064;-76
2021/12/14 05:02:43;;;;;;;15.43;5.32;;;;;;;6.75;100.00;102219.94;6248020;28;20053;-76
2021/12/14 05:05:48;;;;;;;15.75;5.63;;;;;;;6.78;100.00;102217.28;6247310;28;20053;-77
2021/12/14 05:12:16;;;;;;;14.23;5.70;;;;;;;6.78;100.00;102225.13;6247780;28;20061;-76
2021/12/14 05:15:17;;;;;;;13.65;5.75;;;;;;;6.75;100.00;102227.78;6247720;28;20049;-76
2021/12/14 05:18:19;;;;;;;12.27;5.63;;;;;;;6.77;100.00;102214.72;6247341;28;20673;-77
2021/12/14 05:21:24;;;;;;;10.25;5.07;;;;;;;6.75;100.00;102227.78;6246827;28;20408;-76
2021/12/14 05:24:27;;;;;;;10.88;5.43;;;;;;;6.75;100.00;102238.22;6249720;28;20056;-76
2021/12/14 05:27:36;;;;;;;17.23;4.82;;;;;;;6.68;100.00;102225.28;6258312;28;20394;-76
2021/12/14 05:30:40;;;;;;;15.82;6.05;;;;;;;6.68;100.00;102222.69;6272102;28;20381;-76
2021/12/14 05:33:42;;;;;;;12.82;5.07;;;;;;;6.67;100.00;102227.00;6261715;28;20050;-77
2021/12/14 05:36:45;;;;;;;12.43;5.60;;;;;;;6.67;100.00;102226.16;6258494;28;20522;-77
2021/12/14 05:39:53;;;;;;;10.95;4.88;;;;;;;6.65;100.00;102230.53;6268418;28;20495;-77
2021/12/14 05:46:12;;;;;;;16.23;4.70;;;;;;;6.64;100.00;102234.91;6244232;28;20045;-76
2021/12/14 05:49:13;;;;;;;15.43;6.20;;;;;;;6.63;100.00;102224.44;6247199;28;20061;-76
2021/12/14 05:52:17;;;;;;;12.07;5.10;;;;;;;6.65;100.00;102227.94;6246641;28;20432;-77
2021/12/14 05:55:24;;;;;;;11.90;4.88;;;;;;;6.65;100.00;102227.94;6246307;28;20056;-77
2021/12/14 05:58:27;;;;;;;15.43;5.13;;;;;;;6.66;100.00;102227.03;6246801;28;20046;-76
2021/12/14 06:01:31;;;;;;;11.02;5.03;;;;;;;6.63;100.00;102227.06;6245577;28;20060;-77
2021/12/14 06:04:35;;;;;;;12.43;5.15;;;;;;;6.65;100.00;102214.88;6259023;28;20497;-77
2021/12/14 06:07:36;;;;;;;11.70;5.32;;;;;;;6.66;100.00;102213.97;6247297;28;20048;-77
2021/12/14 06:10:38;;;;;;;15.40;5.15;;;;;;;6.66;100.00;102216.59;6246485;28;20056;-77
2021/12/14 06:13:44;;;;;;;12.02;4.97;;;;;;;6.64;100.00;102214.00;6246010;28;20492;-77
2021/12/14 06:16:48;;;;;;;11.32;5.47;;;;;;;6.68;100.00;102212.22;6248121;28;20515;-77
2021/12/14 06:19:52;;;;;;;10.77;4.82;;;;;;;6.66;100.00;102207.00;6249341;28;20055;-77
2021/12/14 06:22:54;;;;;;;12.82;5.50;;;;;;;6.67;100.00;102215.69;6264080;28;20056;-77
2021/12/14 06:25:56;;;;;;;10.70;5.07;;;;;;;6.67;100.00;102223.53;6270789;28;20130;-77
2021/12/14 06:29:06;;;;;;;15.20;6.20;;;;;;;6.67;100.00;102223.53;6262893;28;20042;-77
2021/12/14 06:32:10;;;;;;;13.93;5.30;;;;;;;6.67;100.00;102224.41;6269200;28;20045;-76
2021/12/14 06:35:16;;;;;;;15.95;5.93;;;;;;;6.67;100.00;102221.78;6264277;28;20053;-77
2021/12/14 06:38:28;;;;;;;12.57;5.28;;;;;;;6.68;100.00;102220.91;6260079;28;20053;-77
2021/12/14 06:41:29;;;;;;;14.68;6.07;;;;;;;6.69;100.00;102227.00;6249953;28;20057;-77
2021/12/14 06:44:32;;;;;;;11.55;5.07;;;;;;;6.68;100.00;102227.91;6250571;28;20060;-77
2021/12/14 06:47:33;;;;;;;8.30;4.78;;;;;;;6.70;100.00;102233.94;6251420;28;20049;-77
2021/12/14 06:50:40;;;;;;;10.52;5.68;;;;;;;6.70;100.00;102239.19;6249259;28;20052;-77
2021/12/14 06:53:44;;;;;;;8.68;5.57;;;;;;;6.71;100.00;102241.75;6251187;28;20056;-77
2021/12/14 06:56:49;;;;;;;7.90;4.60;;;;;;;6.72;100.00;102253.06;6250497;28;20133;-76
2021/12/14 06:59:54;;;;;;;14.45;6.07;;;;;;;6.72;100.00;102255.69;6249707;28;20049;-76
2021/12/14 07:02:56;;;;;;;11.98;4.30;;;;;;;6.71;100.00;102252.22;6251141;28;20045;-76
2021/12/14 07:05:58;;;;;;;11.75;5.85;;;;;;;6.72;100.00;102255.69;6250835;28;20060;-76
2021/12/14 07:09:07;;;;;;;10.25;4.78;;;;;;;6.71;100.00;102254.81;6250073;28;20057;-76
2021/12/14 07:12:12;;;;;;;13.15;6.20;;;;;;;6.72;100.00;102258.28;6248796;28;20080;-77
2021/12/14 07:15:22;;;;;;;11.48;5.43;;;;;;;6.69;100.00;102260.97;6248985;28;20057;-76
2021/12/14 07:18:25;;;;;;;12.35;5.53;;;;;;;6.68;100.00;102267.09;6249080;28;20136;-76
2021/12/14 07:21:37;;;;;;;16.13;5.90;;;;;;;6.67;100.00;102270.56;6248582;28;20420;-76
2021/12/14 07:24:38;;;;;;;12.80;5.88;;;;;;;6.68;100.00;102269.69;6249038;28;20045;-76
2021/12/14 07:27:40;;;;;;;12.20;5.82;;;;;;;6.69;100.00;102264.44;6247844;28;20523;-77
2021/12/14 07:30:45;;;;;;;12.00;5.60;;;;;;;6.65;100.00;102257.53;6248646;28;20045;-77
2021/12/14 07:33:48;;;;;;;21.55;6.70;;;;;;;6.65;100.00;102259.28;6248921;28;20052;-76
2021/12/14 07:36:51;;;;;;;14.52;5.32;;;;;;;6.63;100.00;102259.28;6248650;28;20504;-76
2021/12/14 07:39:52;;;;;;;16.95;6.35;;;;;;;6.65;100.00;102264.50;6248358;28;20046;-76
2021/12/14 07:43:11;;;;;;;13.10;5.80;;;;;;;6.67;100.00;102267.94;6248557;28;20057;-77
2021/12/14 07:46:21;;;;;;;17.15;6.45;;;;;;;6.66;100.00;102269.69;6248370;28;20049;-76
2021/12/14 07:49:25;;;;;;;11.95;6.10;;;;;;;6.71;100.00;102273.09;6248388;28;20053;-75
2021/12/14 07:52:29;;;;;;;16.67;7.80;;;;;;;6.70;100.00;102274.00;6247841;28;20485;-75
2021/12/14 07:55:31;;;;;;;13.75;6.60;;;;;;;6.68;100.00;102274.91;6248381;28;20267;-75
2021/12/14 07:58:35;;;;;;;12.65;6.30;;;;;;;6.65;100.00;102282.78;6246995;28;20398;-76
2021/12/14 08:01:38;;;;;;;23.55;6.72;;;;;;;6.64;100.00;102279.31;6247992;28;20056;-75
2021/12/14 08:04:41;;;;;;;18.85;7.00;;;;;;;6.61;100.00;102280.19;6247959;28;20056;-76
2021/12/14 08:07:45;;;;;;;11.77;6.45;;;;;;;6.60;100.00;102278.47;6247761;28;20041;-76
2021/12/14 08:10:57;;;;;;;13.70;7.07;;;;;;;6.55;100.00;102276.81;6216275;28;993129;-76
2021/12/14 08:14:01;;;;;;;13.57;6.68;;;;;;;6.53;100.00;102278.56;6260034;28;20045;-76
2021/12/14 08:17:08;;;;;;;15.02;7.20;;;;;;;6.50;100.00;102274.25;6270900;28;20492;-76
2021/12/14 08:20:13;;;;;;;13.77;6.72;;;;;;;6.49;100.00;102271.63;6268354;28;20060;-76
2021/12/14 08:23:19;;;;;;;14.63;6.93;;;;;;;6.50;100.00;102273.41;6257391;28;20057;-76
2021/12/14 08:26:24;;;;;;;13.18;6.70;;;;;;;6.48;100.00;102276.00;6242460;28;20420;-76
2021/12/14 08:29:29;;;;;;;20.88;8.45;;;;;;;6.49;100.00;102277.72;6256429;28;20049;-76
2021/12/14 08:32:35;;;;;;;14.18;6.68;;;;;;;6.51;100.00;102275.13;6266183;28;20067;-76
2021/12/14 08:35:41;;;;;;;18.35;7.25;;;;;;;6.52;100.00;102282.91;6273252;28;20056;-76
2021/12/14 08:38:42;;;;;;;13.40;5.63;;;;;;;6.52;100.00;102285.53;6256152;28;20045;-75
2021/12/14 08:41:50;;;;;;;14.55;7.28;;;;;;;6.56;100.00;102295.06;6248067;28;20180;-76
2021/12/14 08:44:55;;;;;;;14.80;6.85;;;;;;;6.58;100.00;102305.47;6248059;28;20154;-75
2021/12/14 08:48:08;;;;;;;14.75;7.25;;;;;;;6.64;100.00;102312.41;6252918;28;20045;-75
2021/12/14 08:51:14;;;;;;;13.80;6.40;;;;;;;6.61;100.00;102324.59;6264171;28;20496;-75
2021/12/14 08:54:21;;;;;;;16.60;7.97;;;;;;;6.61;100.00;102316.75;6257324;28;20136;-74
2021/12/14 08:57:26;;;;;;;17.65;6.70;;;;;;;6.62;100.00;102320.25;6243414;28;20041;-76
2021/12/14 09:00:30;;;;;;;14.43;7.05;;;;;;;6.67;100.00;102315.81;6245906;28;20128;-75
2021/12/14 09:03:39;;;;;;;14.55;6.82;;;;;;;6.71;100.00;102320.13;6246156;28;20056;-75
2021/12/14 09:06:44;;;;;;;14.98;6.65;;;;;;;6.79;100.00;102322.66;6246241;28;20046;-75
2021/12/14 09:09:46;;;;;;;15.80;7.80;;;;;;;6.82;100.00;102328.72;6243480;28;20045;-75
2021/12/14 09:12:49;;;;;;;18.58;7.80;;;;;;;6.84;100.00;102316.50;6245881;28;20116;-76
2021/12/14 09:15:53;;;;;;;15.57;7.25;;;;;;;6.90;100.00;102312.06;6254125;28;20076;-76
2021/12/14 09:19:02;;;;;;;14.82;7.20;;;;;;;6.95;100.00;102316.38;6260045;28;20412;-75
2021/12/14 09:22:08;;;;;;;15.88;7.82;;;;;;;6.97;100.00;102316.34;6249332;28;20132;-75
2021/12/14 09:25:15;;;;;;;16.52;8.43;;;;;;;7.01;100.00;102321.50;6247341;28;20053;-75
2021/12/14 09:28:18;;;;;;;11.68;7.13;;;;;;;7.00;100.00;102317.16;6246660;28;20050;-75
2021/12/14 09:31:22;;;;;;;14.07;7.75;;;;;;;7.07;100.00;102317.94;6245151;28;20050;-75
2021/12/14 09:34:28;;;;;;;16.42;7.43;;;;;;;7.13;100.00;102320.50;6246850;28;20053;-75
2021/12/14 09:37:31;;;;;;;17.50;8.13;;;;;;;7.10;100.00;102323.13;6246719;28;20049;-75
2021/12/14 09:40:36;;;;;;;18.00;8.10;;;;;;;7.11;100.00;102320.50;6246944;28;20091;-75
2021/12/14 09:43:40;;;;;;;14.93;7.03;;;;;;;7.11;100.00;102311.78;6249345;28;20493;-75
2021/12/14 09:46:42;;;;;;;19.20;7.13;;;;;;;7.14;100.00;102305.66;6257112;28;20049;-75
2021/12/14 09:49:48;;;;;;;19.52;8.32;;;;;;;7.17;100.00;102303.84;6246426;28;20485;-75
2021/12/14 09:52:50;;;;;;;14.23;6.85;;;;;;;7.21;100.00;102299.44;6246854;28;20049;-75
2021/12/14 09:55:54;;;;;;;19.05;7.43;;;;;;;7.26;100.00;102305.47;6246631;28;20053;-75
2021/12/14 09:58:59;;;;;;;14.63;7.85;;;;;;;7.28;100.00;102312.41;6246256;28;20050;-74
2021/12/14 10:02:05;;;;;;;18.80;7.55;;;;;;;7.32;100.00;102300.16;6246448;28;20057;-75
2021/12/14 10:05:13;;;;;;;17.17;7.72;;;;;;;7.33;100.00;102309.75;6229511;28;20054;-75
2021/12/14 10:08:20;;;;;;;16.20;7.00;;;;;;;7.35;100.00;102302.72;6240537;28;20385;-75
2021/12/14 10:11:35;;;;;;;15.40;8.25;;;;;;;7.37;100.00;102306.19;6246487;28;20052;-75
2021/12/14 10:14:40;;;;;;;17.92;8.88;;;;;;;7.35;100.00;102307.94;6262779;28;20139;-75
2021/12/14 10:17:43;;;;;;;18.80;7.20;;;;;;;7.41;100.00;102304.41;6265949;28;20692;-75
2021/12/14 10:20:53;;;;;;;18.20;7.63;;;;;;;7.46;100.00;102300.81;6257535;28;20420;-76
2021/12/14 10:23:55;;;;;;;14.48;7.00;;;;;;;7.45;100.00;102306.06;6271339;28;20053;-75
2021/12/14 10:27:00;;;;;;;15.98;7.25;;;;;;;7.46;100.00;102307.81;6270956;28;20056;-74
2021/12/14 10:30:07;;;;;;;13.80;6.72;;;;;;;7.54;100.00;102300.69;6248858;28;20053;-75
2021/12/14 10:33:09;;;;;;;14.60;7.10;;;;;;;7.58;100.00;102302.38;6242844;28;20049;-75
2021/12/14 10:36:23;;;;;;;14.13;7.10;;;;;;;7.53;100.00;102298.97;6244737;28;20053;-75
2021/12/14 10:39:38;;;;;;;13.68;6.82;;;;;;;7.55;100.00;102298.06;6245255;28;20749;-76
2021/12/14 10:43:07;;;;;;;15.68;7.93;;;;;;;7.69;100.00;102289.13;6244586;28;20050;-75
2021/12/14 10:46:12;;;;;;;15.63;7.20;;;;;;;7.66;100.00;102284.78;6242946;28;20046;-75
2021/12/14 10:49:15;;;;;;;15.73;7.32;;;;;;;7.69;100.00;102294.38;6244510;28;20496;-75
2021/12/14 10:52:23;;;;;;;16.52;7.35;;;;;;;7.72;100.00;102292.56;6244710;28;20520;-75
2021/12/14 10:55:28;;;;;;;15.07;6.95;;;;;;;7.68;100.00;102296.13;6242214;28;20045;-75
2021/12/14 10:58:30;;;;;;;13.27;7.53;;;;;;;7.63;100.00;102298.81;6244287;28;20248;-75
2021/12/14 11:01:34;;;;;;;16.95;7.32;;;;;;;7.61;100.00;102297.94;6244194;28;20053;-76
2021/12/14 11:04:40;;;;;;;13.65;7.13;;;;;;;7.60;100.00;102292.75;6249556;28;20420;-75
2021/12/14 11:07:47;;;;;;;13.80;7.18;;;;;;;7.60;100.00;102300.59;6250630;28;20126;-75
2021/12/14 11:10:53;;;;;;;15.45;7.38;;;;;;;7.61;100.00;102295.34;6249975;28;20061;-75
2021/12/14 11:14:00;;;;;;;18.58;7.28;;;;;;;7.66;100.00;102283.94;6250407;28;20052;-75
2021/12/14 11:20:31;;;;;;;14.75;6.85;;;;;;;7.66;100.00;102291.78;6250057;28;20129;-75
2021/12/14 11:23:37;;;;;;;13.43;6.35;;;;;;;7.71;100.00;102288.19;6250280;28;20136;-76
2021/12/14 11:26:39;;;;;;;12.75;6.75;;;;;;;7.72;100.00;102286.44;6250082;28;20496;-76
2021/12/14 11:29:40;;;;;;;13.95;7.38;;;;;;;7.71;100.00;102289.94;6249866;28;20046;-76
2021/12/14 11:32:43;;;;;;;15.98;6.93;;;;;;;7.73;100.00;102290.81;6249565;28;20520;-76
2021/12/14 11:35:47;;;;;;;17.90;8.25;;;;;;;7.75;100.00;102295.09;6249455;28;20045;-74
2021/12/14 11:38:57;;;;;;;16.13;6.45;;;;;;;7.76;100.00;102288.97;6249861;28;20046;-75
2021/12/14 11:41:59;;;;;;;;;;;;;;;7.73;100.00;102296.91;6249766;28;20052;-75
2021/12/14 11:45:06;;;;;;;15.27;7.38;;;;;;;7.73;100.00;102302.13;6249722;28;19921;-75
2021/12/14 11:48:08;;;;;;;15.38;6.97;;;;;;;7.66;100.00;102295.25;6249457;28;20501;-75
2021/12/14 11:51:10;;;;;;;16.20;6.68;;;;;;;7.62;100.00;102293.59;6249482;28;20054;-75
2021/12/14 11:54:16;;;;;;;13.13;6.53;;;;;;;7.59;100.00;102291.03;6249276;28;20053;-75
2021/12/14 11:57:18;;;;;;;19.20;7.47;;;;;;;7.60;100.00;102292.75;6249262;28;20061;-75
2021/12/14 12:00:22;;;;;;;11.98;6.35;;;;;;;7.61;100.00;102289.25;6248699;28;20496;-75
2021/12/14 12:03:34;;;;;;;14.57;7.72;;;;;;;7.66;100.00;102294.41;6249278;28;20056;-76
2021/12/14 12:06:47;;;;;;;15.63;6.90;;;;;;;7.66;100.00;102297.88;6249038;28;20402;-76
2021/12/14 12:09:51;;;;;;;17.35;7.22;;;;;;;7.70;100.00;102296.94;6257524;28;20049;-75
2021/12/14 12:12:52;;;;;;;15.93;6.93;;;;;;;7.72;100.00;102287.34;6260868;28;20385;-75
2021/12/14 12:15:53;;;;;;;19.00;8.88;;;;;;;7.76;100.00;102290.72;6268506;28;20053;-75
2021/12/14 12:19:14;;;;;;;13.93;6.20;;;;;;;7.72;100.00;102295.19;6262676;28;20046;-75
2021/12/14 12:22:16;;;;;;;15.80;6.55;;;;;;;7.68;100.00;102298.75;6272826;28;20045;-75
2021/12/14 12:25:22;;;;;;;14.77;7.13;;;;;;;7.70;100.00;102293.47;6251111;28;20108;-75
2021/12/14 12:28:25;;;;;;;18.30;7.35;;;;;;;7.69;100.00;102302.22;6245203;28;20065;-75
2021/12/14 12:31:26;;;;;;;19.80;7.38;;;;;;;7.73;100.00;102304.75;6248086;28;20493;-74
2021/12/14 12:34:35;;;;;;;16.08;7.80;;;;;;;7.72;100.00;102310.00;6248817;28;20538;-75
2021/12/14 12:37:40;;;;;;;14.85;7.45;;;;;;;7.67;100.00;102309.19;6252435;28;20049;-75
2021/12/14 12:40:50;;;;;;;16.48;7.55;;;;;;;7.65;100.00;102306.63;6272782;28;20049;-76
2021/12/14 12:43:53;;;;;;;18.27;7.97;;;;;;;7.59;100.00;102307.59;6273168;28;20055;-75
2021/12/14 12:46:57;;;;;;;17.05;7.65;;;;;;;7.57;100.00;102309.34;6272632;28;20049;-75
2021/12/14 12:50:00;;;;;;;16.58;7.10;;;;;;;7.55;100.00;102308.53;6272728;28;20045;-75
2021/12/14 12:53:01;;;;;;;14.68;6.75;;;;;;;7.54;100.00;102314.66;6272691;28;20075;-75
2021/12/14 12:56:08;;;;;;;14.15;7.32;;;;;;;7.57;100.00;102311.97;6272840;28;20526;-75
2021/12/14 12:59:10;;;;;;;17.00;7.97;;;;;;;7.54;100.00;102317.28;6268237;28;20038;-75
2021/12/14 13:02:20;;;;;;;15.60;7.07;;;;;;;7.57;100.00;102324.19;6247585;28;20053;-76
2021/12/14 13:05:32;;;;;;;17.80;7.65;;;;;;;7.58;100.00;102316.31;6247421;28;20049;-76
2021/12/14 13:08:38;;;;;;;16.38;7.60;;;;;;;7.59;100.00;102312.81;6246368;28;20045;-76
2021/12/14 13:11:40;;;;;;;18.63;7.53;;;;;;;7.59;100.00;102312.81;6247317;28;20401;-75
2021/12/14 13:14:42;;;;;;;16.92;7.38;;;;;;;7.61;100.00;102316.25;6247327;28;20078;-76
2021/12/14 13:17:43;;;;;;;13.00;6.40;;;;;;;7.64;100.00;102312.75;6245270;28;20056;-76
2021/12/14 13:20:46;;;;;;;13.32;6.57;;;;;;;7.71;100.00;102316.13;6246473;28;20050;-76
2021/12/14 13:24:07;;;;;;;14.95;6.95;;;;;;;7.68;100.00;102318.81;6247109;28;20056;-75
2021/12/14 13:27:12;;;;;;;14.10;5.97;;;;;;;7.68;100.00;102321.41;6247063;28;20054;-75
2021/12/14 13:30:13;;;;;;;17.85;8.52;;;;;;;7.70;100.00;102314.41;6246455;28;20052;-76
2021/12/14 13:33:25;;;;;;;16.80;6.53;;;;;;;7.69;100.00;102316.16;6247454;28;20049;-76
2021/12/14 13:36:27;;;;;;;15.25;6.57;;;;;;;7.70;100.00;102322.25;6246871;28;20471;-75
2021/12/14 13:39:29;;;;;;;16.08;7.55;;;;;;;7.68;100.00;102321.41;6245454;28;20405;-76
2021/12/14 13:42:41;;;;;;;20.90;6.88;;;;;;;7.68;100.00;102324.03;6246740;28;20057;-77
2021/12/14 13:45:46;;;;;;;20.23;7.95;;;;;;;7.68;100.00;102327.53;6247326;28;20053;-77
2021/12/14 13:48:47;;;;;;;15.05;6.13;;;;;;;7.65;100.00;102327.56;6246961;28;20056;-75
2021/12/14 13:51:49;;;;;;;20.90;7.22;;;;;;;7.65;100.00;102332.78;6246815;28;20054;-76
2021/12/14 13:55:10;;;;;;;17.10;6.82;;;;;;;7.65;100.00;102319.72;6246981;28;20061;-75
2021/12/14 13:58:17;;;;;;;15.98;7.25;;;;;;;7.62;100.00;102320.59;6246736;28;20042;-76
2021/12/14 14:01:21;;;;;;;14.43;6.43;;;;;;;7.62;100.00;102322.38;6245989;28;20049;-75
2021/12/14 14:04:28;;;;;;;13.18;6.63;;;;;;;7.63;100.00;102330.22;6246918;28;20099;-76
2021/12/14 14:07:29;;;;;;;21.02;8.23;;;;;;;7.66;100.00;102331.03;6247351;28;20092;-75
2021/12/14 14:10:31;;;;;;;14.15;7.28;;;;;;;7.62;100.00;102333.69;6262126;28;20056;-75
2021/12/14 14:13:34;;;;;;;16.75;6.68;;;;;;;7.62;100.00;102331.06;6270068;28;20489;-75
2021/12/14 14:16:38;;;;;;;15.18;7.57;;;;;;;7.61;100.00;102339.81;6254815;28;20512;-75
2021/12/14 14:19:42;;;;;;;13.18;6.15;;;;;;;7.61;100.00;102336.34;6246339;28;20497;-75
2021/12/14 14:22:44;;;;;;;13.07;6.10;;;;;;;7.59;100.00;102333.75;6245778;28;20049;-75
2021/12/14 14:25:50;;;;;;;17.85;7.35;;;;;;;7.59;100.00;102333.75;6246169;28;20053;-75
2021/12/14 14:29:04;;;;;;;14.68;6.32;;;;;;;7.58;100.00;102341.59;6246048;28;20480;-76
2021/12/14 14:32:21;;;;;;;14.60;7.22;;;;;;;7.52;100.00;102341.72;6246185;28;20045;-77